Lower Lake, CA (95457)

12:21 PM PDT on August 22, 2014 (GMT -0700)
Jerusalem Grade | Change Station
CLOSE
Current Station
Personal Weather Station
Location: Lower Lake, CA
Elevation: 1846 ft
Nearby Weather Stations

Elev 1846 ft 38.83 °N, 122.53 °W | Updated 2 minutes ago

Scattered Clouds
Scattered Clouds
84.8 °F
Feels Like 83 °F
N
2.0
Wind Variable Wind from NE
Gusts 6.0 mph

Today
High -- | Low -- °F
--% Chance of Precip.
Yesterday
High -- | Low -- °F
Precip. -- in
6:30 AM 7:55 PM
Waning Crescent, 7% visible
Pressure 29.89 in
Visibility 10.0 miles
Clouds Scattered Clouds 1700 ft
Heat Index 83 °F
Dew Point 53 °F
Humidity 34%
Rainfall 0.00 in
Snow Depth Not available.
UV 7 out of 12
Pollen 7.30 out of 12
Air Quality Not available.
Flu Activity Not available.
METAR KSTS 221853Z VRB05KT 10SM SCT017 21/13 A2991 RMK AO2 SLP122 T02060133

More Conditions Fewer Conditions

Pressure 29.89 in
Visibility 10.0 miles
Clouds Scattered Clouds 1700 ft
Heat Index 83 °F
Dew Point 53 °F
Humidity 34%
Rainfall 0.00 in
Snow Depth Not available.
UV 7 out of 12
Pollen 7.30 out of 12
Air Quality Not available.
Flu Activity Not available.
METAR KSTS 221853Z VRB05KT 10SM SCT017 21/13 A2991 RMK AO2 SLP122 T02060133

More Conditions Fewer Conditions

10-Day Weather Forecast

Almanac

Astronomy

Aug. 22, 2014 Rise Set
Actual Time 6:30 AM PDT 7:55 PM PDT
Civil Twilight 6:02 AM PDT 8:23 PM PDT
Nautical Twilight 5:28 AM PDT 8:56 PM PDT
Astronomical Twilight 4:53 AM PDT 9:31 PM PDT
Moon 3:58 AM PDT 6:06 PM PDT
Length of Visible Light 14h 20m
Length of Day
13h 24m
Tomorrow will be 2m 20s shorter.
Waning Crescent, 7% of the Moon is Illuminated
Today
Waning Crescent
Aug 25
New
Sep 2
First Quarter
Sep 8
Full
Sep 15
Last Quarter

Today's Extremes

State Highs State Lows

Community

WunderPhotos

Upload Photos

1,746,224 photos uploaded!

Nearby

Snow Depth

Station Depth Elevation
CSS Lab 1 in 6900 ft
Independence Camp 0 in 7000 ft
Echo Peak 0 in 7800 ft
Forestdale Creek 0 in 8029 ft
Hagan's Meadow 0 in 8000 ft

Earthquake Activity

City Distance Mag. Time & Date
Berkeley, California 74 miles 2.6 7:41 PM PDT
2014-08-16
Minimum magnitude displayed is 2.5.

Coastal Water Temperatures

Place Temperature
No Stations Reporting

Nearby Weather Stations